< < Back
Terminal Aerodrome Forecast


Current Version              Previous Versions:   1  2  3  4  5  6  7  8  9  

Terminal Aerodrome Forecast

679
FTUS44 KBMX 262327
TAFANB
TAF
KANB 262327Z 2700/2724 23007KT P6SM VCSH BKN050
     FM270200 32009G18KT P6SM VCSH SCT015 OVC040
      TEMPO 2703/2705 OVC015
     FM270500 33010KT P6SM VCSH SCT008 OVC015
      TEMPO 2705/2708 OVC007
     FM271400 34010KT P6SM SCT025=

Latest METAR

912
SAUS70 KWBC 270800 RRB
MTRANB
METAR KANB 270753Z AUTO 34006KT 10SM OVC012 10/08 A2983 RMK AO2 RAE44
SLP100 P0001 T01000078


USA.gov is the U.S. government's official web portal to all federal, state and local government web resources and services.